Time;durP1;ratioP1;P1;durP2;ratioP2;P2;SDS_P1;SDS_P2;PMS_P1;PMS_P2;Temp;Humidity;BMP_temperature;BMP_pressure;BME280_temperature;BME280_humidity;BME280_pressure;Samples;Min_cycle;Max_cycle;Signal;HPM_P1;HPM_P2
2023/03/16 00:01:00;;;;;;;;;;;;;;;;;;4984449;28;19940;-81
2023/03/16 00:03:29;;;;;;;;;;;;;;;;;;4986888;28;20431;-82
2023/03/16 00:05:54;;;;;;;;;;;;;;;;;;4984525;28;19917;-82
2023/03/16 00:08:19;;;;;;;;;;;;;;;;;;4985007;28;19914;-82
2023/03/16 00:10:45;;;;;;;;;;;;;;;;;;4983746;28;20302;-82
2023/03/16 00:13:11;;;;;;;;;;;;;;;;;;4987295;28;20551;-82
2023/03/16 00:15:36;;;;;;;;;;;;;;;;;;4986445;28;19929;-82
2023/03/16 00:18:02;;;;;;;;;;;;;;;;;;4984160;28;20392;-82
2023/03/16 00:20:27;;;;;;;;;;;;;;;;;;4986195;28;20054;-82
2023/03/16 00:22:52;;;;;;;;;;;;;;;;;;4983830;28;19918;-82
2023/03/16 00:25:20;;;;;;;;;;;;;;;;;;4996540;28;19914;-82
2023/03/16 00:27:45;;;;;;;;;;;;;;;;;;4998539;28;19937;-82
2023/03/16 00:30:10;;;;;;;;;;;;;;;;;;4985828;28;20005;-82
2023/03/16 00:32:35;;;;;;;;;;;;;;;;;;4984040;28;19944;-82
2023/03/16 00:35:01;;;;;;;;;;;;;;;;;;4985335;28;19949;-82
2023/03/16 00:37:26;;;;;;;;;;;;;;;;;;4983116;28;19964;-82
2023/03/16 00:39:51;;;;;;;;;;;;;;;;;;4986618;28;19914;-82
2023/03/16 00:42:16;;;;;;;;;;;;;;;;;;4984620;28;19976;-82
2023/03/16 00:44:41;;;;;;;;;;;;;;;;;;4981466;28;19928;-82
2023/03/16 00:47:06;;;;;;;;;;;;;;;;;;4984876;28;19914;-82
2023/03/16 00:49:35;;;;;;;;;;;;;;;;;;4982631;28;20384;-82
2023/03/16 00:52:00;;;;;;;;;;;;;;;;;;4984005;28;19918;-81
2023/03/16 00:54:26;;;;;;;;;;;;;;;;;;4985968;28;20340;-82
2023/03/16 00:56:51;;;;;;;;;;;;;;;;;;4986928;28;20281;-82
2023/03/16 00:59:18;;;;;;;;;;;;;;;;;;4983599;28;20471;-83
2023/03/16 01:01:45;;;;;;;;;;;;;;;;;;4984067;28;19925;-82
2023/03/16 01:04:10;;;;;;;;;;;;;;;;;;4988403;28;20447;-82
2023/03/16 01:06:35;;;;;;;;;;;;;;;;;;4984560;28;20016;-82
2023/03/16 01:09:04;;;;;;;;;;;;;;;;;;4986417;28;19929;-82
2023/03/16 01:11:32;;;;;;;;;;;;;;;;;;4985463;28;19972;-82
2023/03/16 01:13:57;;;;;;;;;;;;;;;;;;4986102;28;19914;-82
2023/03/16 01:16:22;;;;;;;;;;;;;;;;;;4979931;28;19914;-82
2023/03/16 01:18:48;;;;;;;;;;;;;;;;;;4982486;28;19921;-82
2023/03/16 01:21:13;;;;;;;;;;;;;;;;;;4982569;28;20134;-81
2023/03/16 01:23:38;;;;;;;;;;;;;;;;;;4984566;28;19926;-82
2023/03/16 01:26:04;;;;;;;;;;;;;;;;;;4984616;28;19920;-82
2023/03/16 01:28:29;;;;;;;;;;;;;;;;;;4980522;28;19918;-82
2023/03/16 01:30:56;;;;;;;;;;;;;;;;;;4982936;28;19914;-82
2023/03/16 01:33:21;;;;;;;;;;;;;;;;;;4980673;28;19997;-82
2023/03/16 01:35:47;;;;;;;;;;;;;;;;;;4983418;28;19917;-82
2023/03/16 01:38:12;;;;;;;;;;;;;;;;;;4983742;28;20162;-82
2023/03/16 01:40:37;;;;;;;;;;;;;;;;;;4980756;28;20407;-82
2023/03/16 01:43:03;;;;;;;;;;;;;;;;;;4983316;28;19925;-81
2023/03/16 01:45:28;;;;;;;;;;;;;;;;;;4985093;28;19914;-82
2023/03/16 01:47:53;;;;;;;;;;;;;;;;;;4983658;28;19940;-83
2023/03/16 01:50:18;;;;;;;;;;;;;;;;;;4983591;28;19996;-81
2023/03/16 01:52:44;;;;;;;;;;;;;;;;;;4983359;28;19921;-82
2023/03/16 01:55:12;;;;;;;;;;;;;;;;;;4984622;28;20372;-82
2023/03/16 01:57:37;;;;;;;;;;;;;;;;;;4987395;28;19918;-82
2023/03/16 02:00:08;;;;;;;;;;;;;;;;;;4986016;28;19917;-81
2023/03/16 02:02:33;;;;;;;;;;;;;;;;;;4987847;28;20282;-82
2023/03/16 02:04:59;;;;;;;;;;;;;;;;;;4988845;28;20012;-82
2023/03/16 02:07:24;;;;;;;;;;;;;;;;;;4985634;28;20383;-81
2023/03/16 02:09:49;;;;;;;;;;;;;;;;;;4988056;28;20008;-82
2023/03/16 02:12:17;;;;;;;;;;;;;;;;;;4987561;28;19921;-82
2023/03/16 02:14:42;;;;;;;;;;;;;;;;;;4988863;28;19928;-82
2023/03/16 02:17:07;;;;;;;;;;;;;;;;;;4984953;28;19917;-82
2023/03/16 02:19:32;;;;;;;;;;;;;;;;;;4984553;28;19985;-81
2023/03/16 02:21:58;;;;;;;;;;;;;;;;;;4985978;28;20000;-82
2023/03/16 02:24:23;;;;;;;;;;;;;;;;;;4986764;28;20160;-82
2023/03/16 02:26:48;;;;;;;;;;;;;;;;;;4988864;28;19921;-82
2023/03/16 02:29:13;;;;;;;;;;;;;;;;;;4985131;28;20299;-82
2023/03/16 02:31:38;;;;;;;;;;;;;;;;;;4984504;28;20016;-82
2023/03/16 02:34:04;;;;;;;;;;;;;;;;;;4984245;28;19918;-82
2023/03/16 02:36:29;;;;;;;;;;;;;;;;;;4985805;28;19921;-82
2023/03/16 02:38:54;;;;;;;;;;;;;;;;;;4987888;28;19921;-81
2023/03/16 02:41:19;;;;;;;;;;;;;;;;;;4987304;28;20008;-82
2023/03/16 02:43:44;;;;;;;;;;;;;;;;;;4983989;28;20443;-82
2023/03/16 02:46:09;;;;;;;;;;;;;;;;;;4985984;28;19960;-82
2023/03/16 02:48:34;;;;;;;;;;;;;;;;;;4984501;28;20560;-82
2023/03/16 02:51:00;;;;;;;;;;;;;;;;;;4984571;28;19926;-82
2023/03/16 02:53:25;;;;;;;;;;;;;;;;;;4985694;28;19935;-82
2023/03/16 02:55:50;;;;;;;;;;;;;;;;;;4987609;28;20311;-82
2023/03/16 02:58:15;;;;;;;;;;;;;;;;;;4989441;28;19917;-82
2023/03/16 03:00:41;;;;;;;;;;;;;;;;;;4985395;28;20398;-82
2023/03/16 03:03:09;;;;;;;;;;;;;;;;;;4985334;28;20455;-82
2023/03/16 03:05:34;;;;;;;;;;;;;;;;;;4985512;28;19992;-82
2023/03/16 03:07:59;;;;;;;;;;;;;;;;;;5003276;28;20372;-82
2023/03/16 03:10:25;;;;;;;;;;;;;;;;;;4985297;28;19914;-82
2023/03/16 03:12:50;;;;;;;;;;;;;;;;;;4983162;28;19959;-82
2023/03/16 03:15:16;;;;;;;;;;;;;;;;;;4982417;28;19925;-82
2023/03/16 03:17:41;;;;;;;;;;;;;;;;;;4981413;28;19918;-82
2023/03/16 03:20:12;;;;;;;;;;;;;;;;;;4981285;28;20368;-82
2023/03/16 03:22:37;;;;;;;;;;;;;;;;;;4978153;28;19929;-82
2023/03/16 03:25:03;;;;;;;;;;;;;;;;;;4985976;28;20379;-82
2023/03/16 03:27:28;;;;;;;;;;;;;;;;;;4985642;28;19929;-82
2023/03/16 03:29:53;;;;;;;;;;;;;;;;;;4986702;28;19913;-82
2023/03/16 03:32:18;;;;;;;;;;;;;;;;;;4982185;28;19964;-82
2023/03/16 03:34:43;;;;;;;;;;;;;;;;;;4987342;28;19922;-82
2023/03/16 03:37:08;;;;;;;;;;;;;;;;;;4997464;28;20336;-82
2023/03/16 03:39:34;;;;;;;;;;;;;;;;;;4982876;28;20167;-82
2023/03/16 03:42:01;;;;;;;;;;;;;;;;;;4982437;28;19914;-83
2023/03/16 03:44:27;;;;;;;;;;;;;;;;;;4984788;28;20036;-82
2023/03/16 03:46:52;;;;;;;;;;;;;;;;;;4983813;28;20000;-82
2023/03/16 03:49:17;;;;;;;;;;;;;;;;;;4980484;28;20383;-82
2023/03/16 03:51:42;;;;;;;;;;;;;;;;;;5001152;28;20509;-82
2023/03/16 03:54:08;;;;;;;;;;;;;;;;;;4988499;28;19913;-82
2023/03/16 03:56:33;;;;;;;;;;;;;;;;;;5003435;28;20166;-82
2023/03/16 03:58:58;;;;;;;;;;;;;;;;;;4984744;28;20398;-82
2023/03/16 04:01:23;;;;;;;;;;;;;;;;;;4984123;28;19925;-82
2023/03/16 04:03:48;;;;;;;;;;;;;;;;;;4988111;28;20322;-83
2023/03/16 04:06:13;;;;;;;;;;;;;;;;;;4988328;28;19913;-83
2023/03/16 04:08:39;;;;;;;;;;;;;;;;;;4983648;28;19925;-83
2023/03/16 04:11:04;;;;;;;;;;;;;;;;;;4983783;28;20495;-83
2023/03/16 04:13:29;;;;;;;;;;;;;;;;;;4984355;28;20044;-83
2023/03/16 04:15:54;;;;;;;;;;;;;;;;;;4999450;28;20280;-83
2023/03/16 04:18:19;;;;;;;;;;;;;;;;;;4983992;28;20057;-83
2023/03/16 04:20:44;;;;;;;;;;;;;;;;;;4981307;28;19929;-83
2023/03/16 04:23:10;;;;;;;;;;;;;;;;;;4985853;28;20005;-82
2023/03/16 04:25:37;;;;;;;;;;;;;;;;;;4985404;28;20388;-82
2023/03/16 04:28:02;;;;;;;;;;;;;;;;;;4985354;28;19976;-82
2023/03/16 04:30:29;;;;;;;;;;;;;;;;;;4981329;28;20391;-83
2023/03/16 04:32:55;;;;;;;;;;;;;;;;;;4985609;28;19914;-83
2023/03/16 04:35:21;;;;;;;;;;;;;;;;;;4984326;28;20004;-82
2023/03/16 04:37:46;;;;;;;;;;;;;;;;;;4985687;28;19917;-82
2023/03/16 04:40:14;;;;;;;;;;;;;;;;;;4986556;28;19921;-82
2023/03/16 04:42:39;;;;;;;;;;;;;;;;;;4987989;28;20072;-83
2023/03/16 04:45:04;;;;;;;;;;;;;;;;;;4986613;28;19993;-82
2023/03/16 04:47:32;;;;;;;;;;;;;;;;;;4984677;28;20165;-82
2023/03/16 04:49:57;;;;;;;;;;;;;;;;;;4984527;28;20304;-82
2023/03/16 04:52:22;;;;;;;;;;;;;;;;;;4985456;28;21429;-82
2023/03/16 04:54:48;;;;;;;;;;;;;;;;;;4985495;28;19971;-82
2023/03/16 04:57:13;;;;;;;;;;;;;;;;;;4982617;28;20156;-83
2023/03/16 04:59:38;;;;;;;;;;;;;;;;;;4985416;28;20075;-82
2023/03/16 05:02:03;;;;;;;;;;;;;;;;;;4985949;28;20287;-82
2023/03/16 05:04:28;;;;;;;;;;;;;;;;;;4984736;28;20374;-82
2023/03/16 05:06:54;;;;;;;;;;;;;;;;;;4984846;28;19921;-82
2023/03/16 05:09:19;;;;;;;;;;;;;;;;;;4985667;28;19914;-83
2023/03/16 05:11:44;;;;;;;;;;;;;;;;;;4983598;28;20324;-82
2023/03/16 05:14:09;;;;;;;;;;;;;;;;;;4980247;28;19914;-82
2023/03/16 05:16:35;;;;;;;;;;;;;;;;;;4981707;28;19914;-82
2023/03/16 05:19:00;;;;;;;;;;;;;;;;;;4983769;28;19913;-83
2023/03/16 05:21:25;;;;;;;;;;;;;;;;;;4982868;28;20391;-82
2023/03/16 05:23:51;;;;;;;;;;;;;;;;;;4983700;28;20008;-83
2023/03/16 05:26:17;;;;;;;;;;;;;;;;;;4983175;28;19941;-82
2023/03/16 05:28:42;;;;;;;;;;;;;;;;;;4983432;28;20016;-82
2023/03/16 05:31:07;;;;;;;;;;;;;;;;;;4982991;28;20060;-82
2023/03/16 05:33:32;;;;;;;;;;;;;;;;;;4981813;28;19914;-83
2023/03/16 05:35:58;;;;;;;;;;;;;;;;;;4983666;28;20276;-82
2023/03/16 05:38:23;;;;;;;;;;;;;;;;;;4982464;28;19922;-83
2023/03/16 05:40:51;;;;;;;;;;;;;;;;;;4981415;28;20296;-82
2023/03/16 05:43:16;;;;;;;;;;;;;;;;;;4982534;28;19928;-82
2023/03/16 05:45:42;;;;;;;;;;;;;;;;;;4982826;28;19917;-83
2023/03/16 05:48:07;;;;;;;;;;;;;;;;;;4984538;28;19920;-83
2023/03/16 05:50:35;;;;;;;;;;;;;;;;;;4997008;28;19914;-86
2023/03/16 05:53:00;;;;;;;;;;;;;;;;;;4983062;28;19918;-82
2023/03/16 05:55:25;;;;;;;;;;;;;;;;;;4982625;28;20852;-82
2023/03/16 05:57:51;;;;;;;;;;;;;;;;;;4984287;28;19920;-82
2023/03/16 06:00:18;;;;;;;;;;;;;;;;;;4979883;28;20375;-82
2023/03/16 06:02:43;;;;;;;;;;;;;;;;;;4979117;28;19925;-82
2023/03/16 06:05:08;;;;;;;;;;;;;;;;;;4981052;28;19913;-82
2023/03/16 06:07:34;;;;;;;;;;;;;;;;;;4994551;28;20638;-82
2023/03/16 06:09:59;;;;;;;;;;;;;;;;;;4984019;28;19921;-83
2023/03/16 06:12:24;;;;;;;;;;;;;;;;;;4981257;28;20008;-83
2023/03/16 06:14:49;;;;;;;;;;;;;;;;;;4979815;28;19917;-84
2023/03/16 06:17:14;;;;;;;;;;;;;;;;;;4981059;28;19921;-83
2023/03/16 06:19:39;;;;;;;;;;;;;;;;;;4980362;28;19949;-82
2023/03/16 06:22:05;;;;;;;;;;;;;;;;;;4982999;28;19918;-84
2023/03/16 06:24:30;;;;;;;;;;;;;;;;;;4984661;28;20295;-83
2023/03/16 06:26:55;;;;;;;;;;;;;;;;;;4986491;28;20292;-83
2023/03/16 06:29:20;;;;;;;;;;;;;;;;;;4984340;28;19921;-83
2023/03/16 06:31:46;;;;;;;;;;;;;;;;;;4982834;28;20016;-85
2023/03/16 06:34:11;;;;;;;;;;;;;;;;;;4983139;28;20004;-83
2023/03/16 06:36:38;;;;;;;;;;;;;;;;;;4984127;28;19972;-84
2023/03/16 06:39:03;;;;;;;;;;;;;;;;;;4985345;28;20495;-83
2023/03/16 06:41:29;;;;;;;;;;;;;;;;;;4984038;28;19910;-83
2023/03/16 06:43:54;;;;;;;;;;;;;;;;;;4987529;28;19917;-83
2023/03/16 06:46:19;;;;;;;;;;;;;;;;;;4988580;28;20303;-85
2023/03/16 06:48:46;;;;;;;;;;;;;;;;;;4988865;28;19918;-83
2023/03/16 06:51:11;;;;;;;;;;;;;;;;;;4989063;28;19925;-84
2023/03/16 06:53:36;;;;;;;;;;;;;;;;;;4986101;28;19918;-84
2023/03/16 06:56:01;;;;;;;;;;;;;;;;;;4982495;28;20599;-83
2023/03/16 06:58:26;;;;;;;;;;;;;;;;;;4987919;28;19917;-85
2023/03/16 07:00:52;;;;;;;;;;;;;;;;;;4988254;28;19914;-83
2023/03/16 07:03:18;;;;;;;;;;;;;;;;;;4988986;28;19917;-83
2023/03/16 07:05:43;;;;;;;;;;;;;;;;;;4989091;28;19922;-83
2023/03/16 07:08:09;;;;;;;;;;;;;;;;;;4989164;28;19921;-84
2023/03/16 07:10:34;;;;;;;;;;;;;;;;;;4987661;28;19913;-84
2023/03/16 07:12:59;;;;;;;;;;;;;;;;;;4987431;28;20375;-84
2023/03/16 07:15:25;;;;;;;;;;;;;;;;;;4988089;28;19961;-84
2023/03/16 07:17:51;;;;;;;;;;;;;;;;;;4987434;28;19917;-85
2023/03/16 07:20:16;;;;;;;;;;;;;;;;;;4988844;28;20141;-84
2023/03/16 07:22:41;;;;;;;;;;;;;;;;;;4989029;28;19925;-85
2023/03/16 07:25:06;;;;;;;;;;;;;;;;;;4989044;28;20023;-84
2023/03/16 07:27:32;;;;;;;;;;;;;;;;;;4988875;28;20279;-84
2023/03/16 07:29:58;;;;;;;;;;;;;;;;;;5004244;28;19921;-84
2023/03/16 07:32:23;;;;;;;;;;;;;;;;;;4987790;28;19960;-85
2023/03/16 07:34:49;;;;;;;;;;;;;;;;;;4989097;28;19914;-84
2023/03/16 07:37:15;;;;;;;;;;;;;;;;;;5004172;28;20352;-84
2023/03/16 07:39:40;;;;;;;;;;;;;;;;;;4988646;28;19918;-84
2023/03/16 07:42:06;;;;;;;;;;;;;;;;;;4989191;28;19977;-84
2023/03/16 07:44:31;;;;;;;;;;;;;;;;;;4988044;28;20375;-85
2023/03/16 07:46:56;;;;;;;;;;;;;;;;;;4988979;28;20013;-84
2023/03/16 07:49:21;;;;;;;;;;;;;;;;;;4988049;28;20016;-84
2023/03/16 07:51:46;;;;;;;;;;;;;;;;;;4982923;28;19944;-85
2023/03/16 07:54:12;;;;;;;;;;;;;;;;;;4987437;28;20003;-85
2023/03/16 07:56:38;;;;;;;;;;;;;;;;;;4987684;28;20380;-85
2023/03/16 07:59:03;;;;;;;;;;;;;;;;;;4988607;28;19928;-84
2023/03/16 08:01:28;;;;;;;;;;;;;;;;;;4986766;28;19980;-85
2023/03/16 08:03:53;;;;;;;;;;;;;;;;;;4987117;28;19917;-85
2023/03/16 08:06:19;;;;;;;;;;;;;;;;;;4983798;28;19921;-86
2023/03/16 08:08:44;;;;;;;;;;;;;;;;;;4985755;28;19928;-85
2023/03/16 08:11:10;;;;;;;;;;;;;;;;;;4985400;28;19933;-86
2023/03/16 08:13:35;;;;;;;;;;;;;;;;;;4985784;28;19914;-85
2023/03/16 08:16:00;;;;;;;;;;;;;;;;;;4987598;28;19968;-86
2023/03/16 08:18:26;;;;;;;;;;;;;;;;;;4985110;28;20181;-86
2023/03/16 08:20:51;;;;;;;;;;;;;;;;;;4985358;28;19914;-85
2023/03/16 08:23:16;;;;;;;;;;;;;;;;;;4983809;28;20471;-85
2023/03/16 08:25:42;;;;;;;;;;;;;;;;;;4986943;28;19922;-85
2023/03/16 08:28:08;;;;;;;;;;;;;;;;;;4986717;28;19914;-87
2023/03/16 08:30:34;;;;;;;;;;;;;;;;;;4985701;28;19977;-85
2023/03/16 08:33:00;;;;;;;;;;;;;;;;;;4982616;28;19930;-86
2023/03/16 08:35:27;;;;;;;;;;;;;;;;;;4985784;28;19922;-85
2023/03/16 08:37:53;;;;;;;;;;;;;;;;;;4982474;28;19960;-85
2023/03/16 08:40:19;;;;;;;;;;;;;;;;;;4986474;28;19968;-85
2023/03/16 08:42:45;;;;;;;;;;;;;;;;;;4986809;28;20060;-85
2023/03/16 08:45:10;;;;;;;;;;;;;;;;;;4986299;28;20000;-85
2023/03/16 08:47:35;;;;;;;;;;;;;;;;;;4987006;28;19914;-85
2023/03/16 08:50:00;;;;;;;;;;;;;;;;;;4988803;28;20414;-85
2023/03/16 08:52:25;;;;;;;;;;;;;;;;;;4987053;28;19968;-86
2023/03/16 08:54:51;;;;;;;;;;;;;;;;;;4987586;28;20311;-85
2023/03/16 08:57:16;;;;;;;;;;;;;;;;;;4985536;28;20308;-87
2023/03/16 08:59:41;;;;;;;;;;;;;;;;;;4986393;28;19973;-86
2023/03/16 09:02:06;;;;;;;;;;;;;;;;;;4986190;28;19918;-85
2023/03/16 09:04:31;;;;;;;;;;;;;;;;;;4986464;28;19921;-86
2023/03/16 09:06:57;;;;;;;;;;;;;;;;;;4986772;28;20300;-87
2023/03/16 09:09:22;;;;;;;;;;;;;;;;;;4985998;28;20410;-86
2023/03/16 09:11:48;;;;;;;;;;;;;;;;;;4999178;28;19921;-86
2023/03/16 09:14:14;;;;;;;;;;;;;;;;;;4983613;28;19922;-86
2023/03/16 09:16:39;;;;;;;;;;;;;;;;;;4982359;28;19930;-86
2023/03/16 09:19:06;;;;;;;;;;;;;;;;;;4984673;28;19914;-85
2023/03/16 09:21:32;;;;;;;;;;;;;;;;;;4986637;28;19964;-86
2023/03/16 09:23:58;;;;;;;;;;;;;;;;;;4982856;28;20394;-85
2023/03/16 09:26:23;;;;;;;;;;;;;;;;;;4979906;28;19914;-86
2023/03/16 09:28:48;;;;;;;;;;;;;;;;;;4986857;28;19913;-84
2023/03/16 09:31:14;;;;;;;;;;;;;;;;;;4981596;28;19921;-85
2023/03/16 09:33:39;;;;;;;;;;;;;;;;;;4986698;28;19925;-85
2023/03/16 09:36:04;;;;;;;;;;;;;;;;;;4984268;28;19950;-86
2023/03/16 09:38:31;;;;;;;;;;;;;;;;;;4986719;28;20001;-86
2023/03/16 09:40:56;;;;;;;;;;;;;;;;;;4998435;28;19914;-85
2023/03/16 09:43:21;;;;;;;;;;;;;;;;;;4985837;28;19932;-86
2023/03/16 09:45:46;;;;;;;;;;;;;;;;;;5001917;28;19922;-86
2023/03/16 09:48:11;;;;;;;;;;;;;;;;;;4987628;28;19921;-86
2023/03/16 09:50:37;;;;;;;;;;;;;;;;;;4986403;28;20491;-86
2023/03/16 09:53:03;;;;;;;;;;;;;;;;;;4987724;28;19914;-86
2023/03/16 09:55:28;;;;;;;;;;;;;;;;;;4983234;28;20367;-85
2023/03/16 09:57:53;;;;;;;;;;;;;;;;;;4984725;28;19949;-87
2023/03/16 10:00:18;;;;;;;;;;;;;;;;;;4986913;28;19917;-86
2023/03/16 10:02:44;;;;;;;;;;;;;;;;;;4986507;28;20557;-85
2023/03/16 10:05:09;;;;;;;;;;;;;;;;;;4985770;28;19914;-86
2023/03/16 10:07:34;;;;;;;;;;;;;;;;;;4982869;28;19914;-86
2023/03/16 10:10:00;;;;;;;;;;;;;;;;;;4987125;28;19968;-85
2023/03/16 10:12:26;;;;;;;;;;;;;;;;;;4982667;28;20165;-86
2023/03/16 10:14:51;;;;;;;;;;;;;;;;;;4984576;28;20345;-86
2023/03/16 10:17:17;;;;;;;;;;;;;;;;;;4985868;28;19918;-87
2023/03/16 10:19:42;;;;;;;;;;;;;;;;;;4988928;28;20466;-86
2023/03/16 10:22:07;;;;;;;;;;;;;;;;;;4986825;28;19977;-86
2023/03/16 10:24:33;;;;;;;;;;;;;;;;;;4988911;28;19921;-86
2023/03/16 10:27:01;;;;;;;;;;;;;;;;;;4989889;28;20331;-87
2023/03/16 10:29:26;;;;;;;;;;;;;;;;;;4989661;28;20352;-87
2023/03/16 10:31:52;;;;;;;;;;;;;;;;;;4989676;28;19917;-86
2023/03/16 10:34:17;;;;;;;;;;;;;;;;;;4989992;28;19953;-86
2023/03/16 10:36:42;;;;;;;;;;;;;;;;;;4989679;28;20000;-86
2023/03/16 10:39:07;;;;;;;;;;;;;;;;;;4989863;28;19922;-85
2023/03/16 10:41:32;;;;;;;;;;;;;;;;;;5005802;28;19914;-86
2023/03/16 10:43:59;;;;;;;;;;;;;;;;;;5001412;28;20008;-86
2023/03/16 10:46:24;;;;;;;;;;;;;;;;;;4986045;28;19914;-88
2023/03/16 10:48:49;;;;;;;;;;;;;;;;;;4987331;28;19913;-86
2023/03/16 10:51:15;;;;;;;;;;;;;;;;;;4989965;28;19925;-86
2023/03/16 10:53:40;;;;;;;;;;;;;;;;;;4979803;28;19922;-87
2023/03/16 10:56:07;;;;;;;;;;;;;;;;;;4982429;28;19957;-86
2023/03/16 10:58:32;;;;;;;;;;;;;;;;;;4987647;28;20360;-86
2023/03/16 11:00:58;;;;;;;;;;;;;;;;;;4987177;28;19924;-86
2023/03/16 11:03:23;;;;;;;;;;;;;;;;;;4986661;28;19976;-85
2023/03/16 11:05:49;;;;;;;;;;;;;;;;;;4987346;28;19914;-86
2023/03/16 11:08:15;;;;;;;;;;;;;;;;;;4980663;28;19918;-86
2023/03/16 11:10:41;;;;;;;;;;;;;;;;;;4987612;28;20351;-87
2023/03/16 11:13:07;;;;;;;;;;;;;;;;;;4985074;28;19922;-85
2023/03/16 11:15:32;;;;;;;;;;;;;;;;;;4983995;28;19964;-86
2023/03/16 11:17:57;;;;;;;;;;;;;;;;;;4986079;28;19914;-86
2023/03/16 11:20:24;;;;;;;;;;;;;;;;;;4985854;28;19918;-86
2023/03/16 11:22:50;;;;;;;;;;;;;;;;;;4983101;28;20116;-85
2023/03/16 11:25:24;;;;;;;;;;;;;;;;;;4985991;28;19921;-86
2023/03/16 11:27:49;;;;;;;;;;;;;;;;;;4985089;28;20151;-85
2023/03/16 11:30:14;;;;;;;;;;;;;;;;;;4985475;28;19913;-89
2023/03/16 11:32:40;;;;;;;;;;;;;;;;;;4979673;28;19922;-86
2023/03/16 11:35:07;;;;;;;;;;;;;;;;;;4986181;28;19949;-86
2023/03/16 11:37:32;;;;;;;;;;;;;;;;;;4984260;28;19917;-87
2023/03/16 11:39:58;;;;;;;;;;;;;;;;;;4987269;28;19940;-86
2023/03/16 11:42:23;;;;;;;;;;;;;;;;;;4985232;28;20283;-86
2023/03/16 11:44:49;;;;;;;;;;;;;;;;;;4984625;28;19929;-86
2023/03/16 11:47:14;;;;;;;;;;;;;;;;;;4986196;28;19925;-86
2023/03/16 11:49:41;;;;;;;;;;;;;;;;;;4986401;28;19917;-86
2023/03/16 11:52:07;;;;;;;;;;;;;;;;;;5020076;23;19930;-84
2023/03/16 11:54:32;;;;;;;;;;;;;;;;;;5021811;28;19925;-83
2023/03/16 11:56:57;;;;;;;;;;;;;;;;;;5024940;28;19977;-83
2023/03/16 11:59:22;;;;;;;;;;;;;;;;;;5025072;28;19913;-83
2023/03/16 12:01:47;;;;;;;;;;;;;;;;;;5013164;28;19921;-83
2023/03/16 12:04:13;;;;;;;;;;;;;;;;;;5001316;28;19926;-83
2023/03/16 12:06:38;;;;;;;;;;;;;;;;;;5008018;28;19922;-83
2023/03/16 12:09:05;;;;;;;;;;;;;;;;;;5002511;28;19929;-83
2023/03/16 12:11:30;;;;;;;;;;;;;;;;;;5002437;28;19918;-83
2023/03/16 12:13:55;;;;;;;;;;;;;;;;;;5001730;28;19924;-83
2023/03/16 12:16:20;;;;;;;;;;;;;;;;;;4994522;28;19914;-83
2023/03/16 12:18:45;;;;;;;;;;;;;;;;;;5002012;28;19917;-83
2023/03/16 12:21:11;;;;;;;;;;;;;;;;;;4998922;28;19977;-83
2023/03/16 12:23:37;;;;;;;;;;;;;;;;;;4995971;28;19922;-83
2023/03/16 12:26:02;;;;;;;;;;;;;;;;;;5002688;28;19921;-84
2023/03/16 12:28:28;;;;;;;;;;;;;;;;;;4999882;28;19921;-83
2023/03/16 12:30:53;;;;;;;;;;;;;;;;;;5000805;28;19918;-83
2023/03/16 12:33:19;;;;;;;;;;;;;;;;;;4992555;28;19925;-83
2023/03/16 12:35:45;;;;;;;;;;;;;;;;;;4994007;28;19917;-83
2023/03/16 12:38:10;;;;;;;;;;;;;;;;;;4997717;28;19941;-83
2023/03/16 12:40:38;;;;;;;;;;;;;;;;;;4980427;28;19914;-82
2023/03/16 12:43:04;;;;;;;;;;;;;;;;;;4993181;28;19925;-83
2023/03/16 12:45:30;;;;;;;;;;;;;;;;;;4992394;28;19918;-83
2023/03/16 12:47:55;;;;;;;;;;;;;;;;;;4990793;28;19918;-83
2023/03/16 12:50:20;;;;;;;;;;;;;;;;;;4978428;28;19918;-83
2023/03/16 12:52:45;;;;;;;;;;;;;;;;;;4986281;28;19921;-83
2023/03/16 12:55:11;;;;;;;;;;;;;;;;;;4991557;28;20454;-83
2023/03/16 12:57:36;;;;;;;;;;;;;;;;;;4994422;28;19914;-83
2023/03/16 13:00:07;;;;;;;;;;;;;;;;;;4991114;28;20462;-83
2023/03/16 13:02:32;;;;;;;;;;;;;;;;;;4991293;28;20013;-83
2023/03/16 13:05:00;;;;;;;;;;;;;;;;;;4982772;28;20078;-83
2023/03/16 13:07:26;;;;;;;;;;;;;;;;;;4990270;28;19913;-83
2023/03/16 13:09:51;;;;;;;;;;;;;;;;;;4991925;28;20391;-83
2023/03/16 13:12:16;;;;;;;;;;;;;;;;;;4987888;28;19918;-83
2023/03/16 13:14:42;;;;;;;;;;;;;;;;;;4988288;28;19917;-83
2023/03/16 13:17:07;;;;;;;;;;;;;;;;;;4985648;28;19925;-83
2023/03/16 13:19:36;;;;;;;;;;;;;;;;;;4975200;28;19944;-83
2023/03/16 13:22:02;;;;;;;;;;;;;;;;;;4990723;28;20312;-83
2023/03/16 13:24:28;;;;;;;;;;;;;;;;;;4987605;28;20468;-83
2023/03/16 13:26:53;;;;;;;;;;;;;;;;;;4989488;28;20020;-83
2023/03/16 13:29:18;;;;;;;;;;;;;;;;;;4986353;28;19918;-84
2023/03/16 13:31:43;;;;;;;;;;;;;;;;;;4990733;28;20020;-83
2023/03/16 13:34:09;;;;;;;;;;;;;;;;;;4996783;28;19918;-84
2023/03/16 13:36:34;;;;;;;;;;;;;;;;;;4993580;28;19914;-83
2023/03/16 13:38:59;;;;;;;;;;;;;;;;;;4991291;28;19937;-83
2023/03/16 13:41:24;;;;;;;;;;;;;;;;;;4986004;28;19921;-83
2023/03/16 13:43:49;;;;;;;;;;;;;;;;;;4989182;28;20657;-83
2023/03/16 13:46:15;;;;;;;;;;;;;;;;;;4990897;28;19925;-83
2023/03/16 13:48:41;;;;;;;;;;;;;;;;;;4981550;28;20359;-83
2023/03/16 13:51:07;;;;;;;;;;;;;;;;;;4991564;28;19924;-84
2023/03/16 13:53:32;;;;;;;;;;;;;;;;;;4982262;28;20013;-83
2023/03/16 13:55:57;;;;;;;;;;;;;;;;;;4991520;28;19925;-84
2023/03/16 13:58:23;;;;;;;;;;;;;;;;;;4994085;28;19922;-83
2023/03/16 14:00:48;;;;;;;;;;;;;;;;;;4990132;28;19918;-84
2023/03/16 14:03:16;;;;;;;;;;;;;;;;;;4991622;28;20172;-84
2023/03/16 14:05:41;;;;;;;;;;;;;;;;;;4981344;28;19929;-83
2023/03/16 14:08:06;;;;;;;;;;;;;;;;;;4987305;28;19918;-84
2023/03/16 14:10:32;;;;;;;;;;;;;;;;;;4979682;28;20446;-83
2023/03/16 14:12:57;;;;;;;;;;;;;;;;;;4991900;28;19989;-83
2023/03/16 14:15:22;;;;;;;;;;;;;;;;;;4979381;28;19930;-84
2023/03/16 14:17:47;;;;;;;;;;;;;;;;;;4993771;28;20115;-84
2023/03/16 14:20:13;;;;;;;;;;;;;;;;;;4991363;28;19913;-83
2023/03/16 14:22:39;;;;;;;;;;;;;;;;;;4993896;28;20330;-84
2023/03/16 14:25:04;;;;;;;;;;;;;;;;;;4983223;28;20379;-83
2023/03/16 14:27:31;;;;;;;;;;;;;;;;;;4996560;28;20165;-83
2023/03/16 14:29:56;;;;;;;;;;;;;;;;;;4984313;28;19914;-83
2023/03/16 14:32:25;;;;;;;;;;;;;;;;;;4994387;28;19929;-83
2023/03/16 14:34:51;;;;;;;;;;;;;;;;;;4990671;28;19922;-84
2023/03/16 14:37:18;;;;;;;;;;;;;;;;;;4992899;28;19917;-83
2023/03/16 14:39:43;;;;;;;;;;;;;;;;;;4987215;28;19949;-83
2023/03/16 14:42:08;;;;;;;;;;;;;;;;;;4986594;28;19957;-83
2023/03/16 14:44:34;;;;;;;;;;;;;;;;;;4984507;28;19926;-83
2023/03/16 14:46:59;;;;;;;;;;;;;;;;;;4982702;28;20291;-83
2023/03/16 14:49:24;;;;;;;;;;;;;;;;;;4987962;28;19960;-83
2023/03/16 14:51:50;;;;;;;;;;;;;;;;;;4987306;28;20027;-83
2023/03/16 14:54:15;;;;;;;;;;;;;;;;;;4991024;28;19925;-83
2023/03/16 14:56:41;;;;;;;;;;;;;;;;;;4988676;28;20218;-83
2023/03/16 14:59:07;;;;;;;;;;;;;;;;;;4985810;28;20395;-83
2023/03/16 15:01:33;;;;;;;;;;;;;;;;;;4986897;28;20261;-83
2023/03/16 15:03:58;;;;;;;;;;;;;;;;;;4987911;28;20064;-83
2023/03/16 15:06:24;;;;;;;;;;;;;;;;;;4996414;28;20295;-83
2023/03/16 15:08:49;;;;;;;;;;;;;;;;;;4996512;28;19913;-83
2023/03/16 15:11:20;;;;;;;;;;;;;;;;;;4993099;28;19929;-82
2023/03/16 15:16:10;;;;;;;;;;;;;;;;;;4991772;28;19925;-83
2023/03/16 15:18:36;;;;;;;;;;;;;;;;;;4987670;28;19976;-83
2023/03/16 15:21:01;;;;;;;;;;;;;;;;;;4994660;28;20074;-83
2023/03/16 15:23:27;;;;;;;;;;;;;;;;;;4993855;28;19925;-82
2023/03/16 15:25:57;;;;;;;;;;;;;;;;;;4993650;28;19918;-83
2023/03/16 15:28:22;;;;;;;;;;;;;;;;;;4995075;28;19926;-83
2023/03/16 15:30:47;;;;;;;;;;;;;;;;;;4994046;28;19924;-82
2023/03/16 15:33:13;;;;;;;;;;;;;;;;;;4979250;28;19937;-83
2023/03/16 15:35:38;;;;;;;;;;;;;;;;;;4994251;28;19968;-83
2023/03/16 15:38:03;;;;;;;;;;;;;;;;;;4990521;28;19922;-82
2023/03/16 15:40:28;;;;;;;;;;;;;;;;;;4994721;28;19936;-83
2023/03/16 15:42:53;;;;;;;;;;;;;;;;;;4997690;28;19932;-83
2023/03/16 15:45:19;;;;;;;;;;;;;;;;;;4998848;28;20398;-83
2023/03/16 15:47:45;;;;;;;;;;;;;;;;;;4990332;28;19921;-82
2023/03/16 15:50:11;;;;;;;;;;;;;;;;;;4991928;28;20307;-83
2023/03/16 15:52:36;;;;;;;;;;;;;;;;;;4994360;28;20165;-83
2023/03/16 15:55:06;;;;;;;;;;;;;;;;;;5000304;28;19918;-82
2023/03/16 15:57:31;;;;;;;;;;;;;;;;;;4989033;28;19914;-82
2023/03/16 15:59:56;;;;;;;;;;;;;;;;;;4999399;28;19941;-82
2023/03/16 16:02:22;;;;;;;;;;;;;;;;;;4995040;28;20384;-83
2023/03/16 16:04:47;;;;;;;;;;;;;;;;;;4992575;28;20223;-83
2023/03/16 16:07:12;;;;;;;;;;;;;;;;;;4987249;28;19913;-83
2023/03/16 16:09:37;;;;;;;;;;;;;;;;;;4990342;28;19961;-82
2023/03/16 16:12:03;;;;;;;;;;;;;;;;;;4994117;28;19929;-83
2023/03/16 16:14:28;;;;;;;;;;;;;;;;;;4989318;28;19983;-82
2023/03/16 16:16:53;;;;;;;;;;;;;;;;;;4996617;28;19924;-82
2023/03/16 16:19:18;;;;;;;;;;;;;;;;;;5000292;28;19924;-83
2023/03/16 16:21:45;;;;;;;;;;;;;;;;;;4991897;28;19928;-82
2023/03/16 16:24:10;;;;;;;;;;;;;;;;;;4996448;28;19984;-82
2023/03/16 16:26:35;;;;;;;;;;;;;;;;;;4996188;28;19914;-82
2023/03/16 16:29:02;;;;;;;;;;;;;;;;;;4997172;28;19930;-83
2023/03/16 16:31:27;;;;;;;;;;;;;;;;;;4990941;28;19918;-83
2023/03/16 16:33:52;;;;;;;;;;;;;;;;;;4991773;28;20372;-82
2023/03/16 16:36:19;;;;;;;;;;;;;;;;;;4981972;28;19922;-83